Time;durP1;ratioP1;P1;durP2;ratioP2;P2;SDS_P1;SDS_P2;PMS_P1;PMS_P2;Temp;Humidity;BMP_temperature;BMP_pressure;BME280_temperature;BME280_humidity;BME280_pressure;Samples;Min_cycle;Max_cycle;Signal;HPM_P1;HPM_P2
2020/12/18 00:01:32;;;;;;;12.00;5.15;;;;;;;6.06;94.42;102213.09;1764307;81;21116;-62
2020/12/18 00:03:59;;;;;;;11.50;5.33;;;;;;;6.01;94.65;102221.06;1776771;80;21138;-63
2020/12/18 00:06:35;;;;;;;13.43;5.92;;;;;;;5.98;94.99;102212.57;1776926;80;21059;-62
2020/12/18 00:09:04;;;;;;;12.50;5.62;;;;;;;5.97;95.24;102214.78;1764259;81;21201;-63
2020/12/18 00:11:31;;;;;;;13.70;5.33;;;;;;;5.96;95.41;102213.00;1775685;80;21135;-61
2020/12/18 00:14:00;;;;;;;13.38;4.70;;;;;;;5.96;95.53;102213.00;1764219;81;21141;-63
2020/12/18 00:16:27;;;;;;;10.53;4.85;;;;;;;5.96;95.60;102215.66;1775727;80;21055;-62
2020/12/18 00:18:55;;;;;;;12.55;5.08;;;;;;;5.96;95.55;102205.02;1764293;81;21026;-63
2020/12/18 00:21:23;;;;;;;11.88;5.12;;;;;;;5.94;95.30;102217.42;1775735;80;22122;-63
2020/12/18 00:23:51;;;;;;;12.50;4.47;;;;;;;5.94;95.30;102217.42;1764181;81;21184;-62
2020/12/18 00:26:18;;;;;;;11.15;4.83;;;;;;;5.96;95.33;102221.41;1776776;80;21052;-62
2020/12/18 00:28:47;;;;;;;13.38;5.10;;;;;;;5.96;95.43;102218.32;1764307;81;21086;-63
2020/12/18 00:31:15;;;;;;;11.30;5.85;;;;;;;5.98;95.51;102210.36;1775691;80;21063;-63
2020/12/18 00:33:42;;;;;;;12.05;5.37;;;;;;;5.97;95.57;102209.45;1764387;81;22471;-62
2020/12/18 00:36:11;;;;;;;11.45;5.15;;;;;;;5.97;95.57;102209.45;1775711;80;21159;-63
2020/12/18 00:38:39;;;;;;;11.78;4.65;;;;;;;5.98;95.51;102208.58;1789576;80;21478;-62
2020/12/18 00:41:07;;;;;;;11.05;4.75;;;;;;;5.98;95.35;102207.24;1810374;79;21051;-62
2020/12/18 00:43:35;;;;;;;10.45;4.87;;;;;;;5.99;95.56;102209.02;1810541;79;21059;-61
2020/12/18 00:46:05;;;;;;;9.55;5.03;;;;;;;6.00;95.31;102212.14;1789496;80;21303;-62
2020/12/18 00:48:32;;;;;;;10.08;5.12;;;;;;;5.98;95.28;102205.04;1810449;79;21027;-62
2020/12/18 00:51:01;;;;;;;10.70;5.17;;;;;;;5.99;95.30;102207.69;1787825;80;21574;-62
2020/12/18 00:53:29;;;;;;;10.43;5.00;;;;;;;5.95;95.29;102205.89;1810346;79;21135;-62
2020/12/18 00:55:57;;;;;;;8.23;4.45;;;;;;;5.92;95.39;102209.87;1789683;80;21575;-62
2020/12/18 00:58:26;;;;;;;11.18;4.78;;;;;;;5.91;95.48;102204.52;1810386;79;21358;-61
2020/12/18 01:00:54;;;;;;;11.28;5.35;;;;;;;5.91;95.61;102200.10;1810334;79;21135;-62
2020/12/18 01:03:23;;;;;;;9.13;4.42;;;;;;;5.92;95.62;102200.55;1789495;80;21077;-63
2020/12/18 01:05:50;;;;;;;10.68;4.50;;;;;;;5.92;95.51;102196.55;1810434;79;21142;-62
2020/12/18 01:08:18;;;;;;;12.85;4.92;;;;;;;5.92;95.35;102203.21;1789428;80;21058;-63
2020/12/18 01:10:46;;;;;;;10.25;4.35;;;;;;;5.90;95.30;102196.98;1810396;79;21339;-61
2020/12/18 01:13:14;;;;;;;10.00;4.70;;;;;;;5.90;95.34;102195.66;1789444;80;21118;-62
2020/12/18 01:15:41;;;;;;;10.15;4.78;;;;;;;5.92;95.33;102197.89;1810412;79;21115;-62
2020/12/18 01:18:16;;;;;;;12.85;5.03;;;;;;;5.91;95.35;102198.77;1787879;80;21188;-62
2020/12/18 01:20:46;;;;;;;7.78;4.00;;;;;;;5.93;95.29;102202.75;1810345;79;21142;-62
2020/12/18 01:23:14;;;;;;;9.83;4.20;;;;;;;5.94;95.19;102202.78;1789545;80;21369;-62
2020/12/18 01:25:43;;;;;;;11.35;4.45;;;;;;;5.96;95.06;102201.02;1810263;79;21116;-62
2020/12/18 01:28:12;;;;;;;8.28;4.75;;;;;;;6.00;94.93;102197.49;1789571;80;21546;-62
2020/12/18 01:30:40;;;;;;;10.48;4.65;;;;;;;6.01;94.64;102201.97;1810533;79;21161;-62
2020/12/18 01:33:08;;;;;;;9.75;4.33;;;;;;;6.01;94.41;102208.63;1789741;80;21058;-63
2020/12/18 01:35:36;;;;;;;8.65;4.35;;;;;;;5.99;94.34;102204.16;1810545;79;21405;-61
2020/12/18 01:38:05;;;;;;;11.30;4.62;;;;;;;5.99;94.31;102201.03;1767009;80;21077;-63
2020/12/18 01:40:33;;;;;;;8.10;4.08;;;;;;;5.99;94.29;102203.70;1775866;80;21135;-62
2020/12/18 01:43:02;;;;;;;11.95;5.00;;;;;;;5.98;94.19;102191.72;1764389;81;21105;-63
2020/12/18 01:45:29;;;;;;;11.30;4.67;;;;;;;5.96;94.14;102204.10;1745627;80;21071;-62
2020/12/18 01:48:00;;;;;;;7.60;3.30;;;;;;;5.96;94.14;102204.10;1763139;81;21206;-63
2020/12/18 01:50:29;;;;;;;10.25;4.55;;;;;;;5.99;94.21;102198.38;1777072;80;21487;-62
2020/12/18 01:52:58;;;;;;;8.20;4.25;;;;;;;6.04;94.14;102202.87;1733196;81;21556;-63
2020/12/18 01:55:27;;;;;;;11.35;4.70;;;;;;;6.07;94.10;102204.22;1774216;80;21155;-62
2020/12/18 01:57:56;;;;;;;10.85;4.80;;;;;;;6.10;94.10;102202.94;1776923;80;21047;-62
2020/12/18 02:00:26;;;;;;;10.45;4.25;;;;;;;6.14;94.00;102204.73;1763928;81;21222;-62
2020/12/18 02:02:54;;;;;;;9.13;4.80;;;;;;;6.18;93.88;102214.52;1776827;80;21107;-63
2020/12/18 02:05:53;;;;;;;11.13;4.77;;;;;;;6.25;93.67;102214.13;1873202;75;22744;-62
2020/12/18 02:08:25;;;;;;;10.00;4.80;;;;;;;6.21;93.64;102207.88;1838188;77;20981;-62
2020/12/18 02:11:13;;;;;;;9.55;4.05;;;;;;;6.23;93.59;102203.91;1841096;78;21668;-62
2020/12/18 02:13:41;;;;;;;12.60;5.67;;;;;;;6.23;93.52;102210.56;1841026;78;20933;-61
2020/12/18 02:16:09;;;;;;;17.02;6.28;;;;;;;6.19;93.56;102205.65;1841000;78;20982;-63
2020/12/18 02:18:38;;;;;;;13.78;5.70;;;;;;;6.15;93.67;102206.06;1811159;78;21025;-62
2020/12/18 02:21:06;;;;;;;15.78;5.70;;;;;;;6.13;93.86;102206.95;1841067;78;21037;-64
2020/12/18 02:23:42;;;;;;;16.17;6.35;;;;;;;6.11;94.07;102201.59;1841071;78;21344;-61
2020/12/18 02:26:11;;;;;;;13.22;6.25;;;;;;;6.10;94.18;102209.59;1841158;78;21052;-62
2020/12/18 02:28:42;;;;;;;14.03;5.87;;;;;;;6.12;94.27;102213.16;1840660;78;21005;-61
2020/12/18 02:31:11;;;;;;;16.35;7.85;;;;;;;6.11;94.35;102214.91;1841037;78;20918;-62
2020/12/18 02:33:41;;;;;;;16.57;8.58;;;;;;;6.12;94.46;102217.16;1840389;78;21049;-61
2020/12/18 02:36:12;;;;;;;12.68;6.42;;;;;;;6.18;94.47;102220.27;1839480;78;21191;-62
2020/12/18 02:38:41;;;;;;;11.68;5.80;;;;;;;6.19;94.32;102214.97;1837080;78;21075;-61
2020/12/18 02:41:09;;;;;;;12.18;5.03;;;;;;;6.23;94.30;102213.23;1828149;78;20999;-62
2020/12/18 02:44:04;;;;;;;17.20;5.97;;;;;;;6.28;94.13;102212.36;1841663;78;22709;-61
2020/12/18 02:46:33;;;;;;;12.93;5.97;;;;;;;6.24;94.10;102213.22;1816910;79;20977;-63
2020/12/18 02:49:00;;;;;;;10.65;5.97;;;;;;;6.26;93.92;102219.45;1816932;79;21352;-61
2020/12/18 02:51:30;;;;;;;19.73;5.03;;;;;;;6.29;93.83;102223.45;1815554;79;20970;-62
2020/12/18 02:54:12;;;;;;;13.88;5.67;;;;;;;6.32;93.60;102230.59;1747860;79;21326;-61
2020/12/18 02:56:58;;;;;;;12.28;5.42;;;;;;;6.32;93.20;102224.39;1816959;78;20985;-62
2020/12/18 02:59:44;;;;;;;12.88;5.72;;;;;;;6.29;93.00;102227.45;1816971;79;21032;-62
2020/12/18 03:02:12;;;;;;;14.83;5.90;;;;;;;6.30;92.76;102226.61;1816875;79;21391;-61
2020/12/18 03:04:43;;;;;;;14.43;5.90;;;;;;;6.32;92.67;102231.05;1816881;79;20954;-62
2020/12/18 03:07:25;;;;;;;12.18;5.87;;;;;;;6.33;92.36;102234.16;1816025;79;20953;-62
2020/12/18 03:09:53;;;;;;;14.53;6.08;;;;;;;6.30;92.12;102232.36;1816869;78;21056;-62
2020/12/18 03:12:21;;;;;;;10.68;4.72;;;;;;;6.28;91.64;102227.47;1816931;78;21051;-61
2020/12/18 03:14:49;;;;;;;12.10;5.03;;;;;;;6.17;91.53;102227.39;1817020;78;23065;-62
2020/12/18 03:17:21;;;;;;;12.00;4.85;;;;;;;6.11;91.65;102236.67;1811772;79;21155;-62
2020/12/18 03:19:51;;;;;;;12.00;5.30;;;;;;;6.08;91.65;102233.96;1814736;79;21119;-62
2020/12/18 03:22:20;;;;;;;11.38;4.58;;;;;;;6.08;91.65;102233.96;1814404;79;21160;-62
2020/12/18 03:24:56;;;;;;;8.83;4.60;;;;;;;6.00;91.46;102225.45;1765088;79;21052;-62
2020/12/18 03:27:40;;;;;;;9.98;4.60;;;;;;;5.96;91.42;102233.39;1814836;79;21578;-63
2020/12/18 03:30:09;;;;;;;13.65;5.35;;;;;;;5.93;91.65;102239.60;1816771;78;21139;-61
2020/12/18 03:32:38;;;;;;;9.63;4.70;;;;;;;5.92;91.80;102237.82;1816841;78;21115;-62
2020/12/18 03:35:08;;;;;;;7.80;4.95;;;;;;;5.91;91.79;102242.70;1815946;79;21238;-62
2020/12/18 03:37:41;;;;;;;12.30;4.58;;;;;;;5.87;91.70;102240.89;1816753;79;21444;-62
2020/12/18 03:40:11;;;;;;;11.43;5.30;;;;;;;5.80;91.89;102235.04;1816545;79;21541;-62
2020/12/18 03:42:40;;;;;;;8.90;4.25;;;;;;;5.73;92.44;102231.42;1818860;78;21108;-62
2020/12/18 03:45:08;;;;;;;10.08;4.58;;;;;;;5.70;92.83;102234.97;1825809;78;21004;-62
2020/12/18 03:47:41;;;;;;;10.95;4.85;;;;;;;5.66;93.25;102234.50;1823498;78;21170;-62
2020/12/18 03:50:10;;;;;;;14.00;5.40;;;;;;;5.62;93.59;102236.65;1823327;78;21205;-61
2020/12/18 03:52:38;;;;;;;9.45;4.10;;;;;;;5.58;93.99;102230.84;1825870;78;21364;-62
2020/12/18 03:55:06;;;;;;;11.10;4.50;;;;;;;5.52;94.32;102226.81;1825232;78;21191;-62
2020/12/18 03:57:52;;;;;;;9.43;4.50;;;;;;;5.48;94.68;102232.98;1825251;78;20948;-61
2020/12/18 04:00:22;;;;;;;10.58;4.42;;;;;;;5.42;95.00;102232.47;1824613;78;21163;-61
2020/12/18 04:02:54;;;;;;;13.43;4.12;;;;;;;5.38;95.32;102233.33;1824814;78;21476;-62
2020/12/18 04:05:23;;;;;;;8.18;4.03;;;;;;;5.33;95.59;102234.59;1825191;78;21691;-61
2020/12/18 04:07:53;;;;;;;10.70;4.87;;;;;;;5.29;95.87;102231.45;1825145;78;21092;-63
2020/12/18 04:10:25;;;;;;;11.78;5.12;;;;;;;5.26;96.19;102227.44;1821133;78;21076;-62
2020/12/18 04:12:54;;;;;;;13.25;5.62;;;;;;;5.24;96.53;102231.84;1820781;78;21080;-62
2020/12/18 04:15:22;;;;;;;11.12;5.47;;;;;;;5.20;96.91;102237.56;1825273;78;21040;-62
2020/12/18 04:17:50;;;;;;;10.53;5.62;;;;;;;5.16;97.09;102237.08;1825243;78;21385;-62
2020/12/18 04:20:17;;;;;;;8.00;3.80;;;;;;;5.12;97.41;102228.61;1825164;78;21233;-62
2020/12/18 04:22:47;;;;;;;7.75;4.03;;;;;;;5.13;97.80;102231.27;1822259;78;21222;-62
2020/12/18 04:25:16;;;;;;;9.73;4.47;;;;;;;5.15;98.03;102225.53;1820933;78;21167;-62
2020/12/18 04:27:45;;;;;;;10.28;4.80;;;;;;;5.17;98.17;102222.91;1825170;78;21039;-62
2020/12/18 04:30:13;;;;;;;9.93;5.20;;;;;;;5.20;98.29;102228.70;1825230;78;21653;-61
2020/12/18 04:32:42;;;;;;;11.43;5.65;;;;;;;5.19;98.32;102226.89;1824956;78;21087;-62
2020/12/18 04:35:10;;;;;;;10.70;5.33;;;;;;;5.19;98.30;102230.88;1825219;78;21001;-62
2020/12/18 04:37:49;;;;;;;11.68;4.95;;;;;;;5.16;98.48;102229.97;1779558;78;21177;-62
2020/12/18 04:40:18;;;;;;;10.53;4.80;;;;;;;5.10;98.81;102224.59;1769954;80;21166;-62
2020/12/18 04:42:48;;;;;;;11.53;4.37;;;;;;;5.03;99.20;102225.41;1769554;80;21402;-63
2020/12/18 04:45:15;;;;;;;7.95;3.92;;;;;;;4.96;99.41;102227.52;1772693;81;21074;-63
2020/12/18 04:47:48;;;;;;;11.28;4.83;;;;;;;4.94;99.85;102237.24;1772793;80;20933;-62
2020/12/18 04:50:16;;;;;;;12.20;5.17;;;;;;;4.90;100.00;102229.69;1740299;81;21079;-61
2020/12/18 04:52:46;;;;;;;14.53;5.15;;;;;;;4.90;100.00;102234.09;1769539;81;21073;-63
2020/12/18 04:55:14;;;;;;;13.20;4.65;;;;;;;4.85;100.00;102240.25;1772742;81;21328;-62
2020/12/18 04:58:02;;;;;;;11.50;4.72;;;;;;;4.84;100.00;102235.81;1772772;81;21004;-62
2020/12/18 05:00:30;;;;;;;11.28;5.83;;;;;;;4.81;100.00;102241.09;1772803;81;21036;-62
2020/12/18 05:03:14;;;;;;;13.50;4.97;;;;;;;4.76;100.00;102242.80;1746383;81;21070;-63
2020/12/18 05:05:42;;;;;;;8.75;3.80;;;;;;;4.70;100.00;102257.31;1772799;80;20924;-61
2020/12/18 05:08:12;;;;;;;10.15;4.08;;;;;;;4.63;100.00;102258.11;1772395;81;21362;-61
2020/12/18 05:10:41;;;;;;;8.70;4.15;;;;;;;4.57;100.00;102263.80;1772815;81;21943;-62
2020/12/18 05:13:10;;;;;;;10.68;4.60;;;;;;;4.57;100.00;102262.89;1771198;81;21166;-61
2020/12/18 05:15:43;;;;;;;11.48;5.45;;;;;;;4.52;100.00;102268.13;1771654;81;21071;-62
2020/12/18 05:18:38;;;;;;;13.80;5.23;;;;;;;4.57;100.00;102269.53;1873229;76;22597;-63
2020/12/18 05:21:07;;;;;;;14.50;5.22;;;;;;;4.52;100.00;102270.78;1838495;78;20937;-63
2020/12/18 05:23:39;;;;;;;15.98;5.70;;;;;;;4.53;100.00;102276.59;1840144;78;21354;-62
2020/12/18 05:26:13;;;;;;;14.60;5.55;;;;;;;4.57;100.00;102274.42;1832697;78;20934;-62
2020/12/18 05:28:49;;;;;;;15.65;4.85;;;;;;;4.63;100.00;102275.38;1840711;78;21004;-62
2020/12/18 05:31:19;;;;;;;14.35;4.97;;;;;;;4.66;100.00;102275.42;1841064;78;20930;-62
2020/12/18 05:34:06;;;;;;;13.75;5.20;;;;;;;4.67;100.00;102281.19;1841222;78;20930;-62
2020/12/18 05:36:41;;;;;;;10.35;5.10;;;;;;;4.66;100.00;102275.42;1836002;78;21373;-62
2020/12/18 05:39:11;;;;;;;9.55;4.67;;;;;;;4.68;100.00;102292.27;1828295;78;21486;-61
2020/12/18 05:41:42;;;;;;;10.58;5.12;;;;;;;4.67;100.00;102297.13;1783905;78;20932;-62
2020/12/18 05:44:09;;;;;;;15.35;4.78;;;;;;;4.69;100.00;102287.41;1809851;78;21476;-62
2020/12/18 05:47:09;;;;;;;11.15;4.55;;;;;;;4.70;100.00;102282.55;1827241;78;20987;-62
2020/12/18 05:49:39;;;;;;;22.40;4.77;;;;;;;4.70;100.00;102287.45;1828337;78;21147;-63
2020/12/18 05:52:20;;;;;;;11.93;5.08;;;;;;;4.69;100.00;102284.75;1827704;78;21019;-62
2020/12/18 05:55:02;;;;;;;9.95;4.80;;;;;;;4.69;100.00;102299.37;1826980;78;21142;-63
2020/12/18 05:57:35;;;;;;;9.30;4.60;;;;;;;4.68;100.00;102288.28;1828008;78;21145;-62
2020/12/18 06:00:08;;;;;;;13.13;4.90;;;;;;;4.69;100.00;102293.64;1828222;78;20928;-62
2020/12/18 06:02:37;;;;;;;10.05;4.40;;;;;;;4.69;100.00;102290.07;1816960;78;21313;-62
2020/12/18 06:05:06;;;;;;;9.25;4.03;;;;;;;4.70;100.00;102293.19;1827378;78;21058;-62
2020/12/18 06:07:39;;;;;;;9.73;4.20;;;;;;;4.73;100.00;102290.56;1826797;78;21062;-63
2020/12/18 06:10:12;;;;;;;11.10;4.35;;;;;;;4.75;100.00;102296.80;1827884;78;21606;-62
2020/12/18 06:13:02;;;;;;;11.75;4.03;;;;;;;4.77;100.00;102297.73;1738080;82;21092;-64
2020/12/18 06:15:56;;;;;;;10.40;4.40;;;;;;;4.83;100.00;102297.81;1889486;76;22725;-62
2020/12/18 06:18:26;;;;;;;8.75;3.65;;;;;;;4.79;100.00;102298.65;1801305;77;20901;-62
2020/12/18 06:20:54;;;;;;;8.25;4.00;;;;;;;4.84;100.00;102306.24;1860415;77;21350;-62
2020/12/18 06:23:22;;;;;;;8.75;4.12;;;;;;;4.86;100.00;102306.24;1860375;77;20985;-62
2020/12/18 06:25:54;;;;;;;13.60;4.55;;;;;;;4.88;100.00;102307.19;1819342;77;20933;-62
2020/12/18 06:28:29;;;;;;;9.18;4.40;;;;;;;4.87;100.00;102306.28;1855116;77;21016;-61
2020/12/18 06:31:01;;;;;;;10.03;4.10;;;;;;;4.88;100.00;102307.19;1859205;77;20988;-61
2020/12/18 06:33:51;;;;;;;9.63;4.23;;;;;;;4.86;100.00;102311.14;1855602;77;21366;-62
2020/12/18 06:36:51;;;;;;;7.90;4.10;;;;;;;4.89;100.00;102312.95;1849985;77;22266;-62
2020/12/18 06:39:35;;;;;;;14.93;6.75;;;;;;;4.93;100.00;102308.55;1819488;78;20987;-62
2020/12/18 06:42:23;;;;;;;13.40;5.70;;;;;;;4.93;100.00;102317.86;1826412;78;21491;-62
2020/12/18 06:45:11;;;;;;;11.50;4.35;;;;;;;4.95;100.00;102321.01;1727400;83;21256;-62
2020/12/18 06:47:57;;;;;;;10.18;4.22;;;;;;;4.95;100.00;102323.66;1716953;83;22548;-61
2020/12/18 06:50:34;;;;;;;8.85;4.25;;;;;;;4.96;100.00;102320.55;1783762;78;21058;-62
2020/12/18 06:53:08;;;;;;;11.50;4.28;;;;;;;4.97;100.00;102325.00;1828077;78;21093;-62
2020/12/18 06:55:38;;;;;;;11.78;4.37;;;;;;;4.99;100.00;102328.60;1781443;78;21086;-62
2020/12/18 06:58:30;;;;;;;9.63;4.40;;;;;;;4.99;100.00;102329.93;1727229;83;21101;-62
2020/12/18 07:01:04;;;;;;;9.67;3.83;;;;;;;5.06;100.00;102323.81;1873191;76;22600;-64
2020/12/18 07:03:46;;;;;;;12.40;3.75;;;;;;;5.05;100.00;102331.75;1841093;78;20922;-62
2020/12/18 07:06:23;;;;;;;8.05;4.15;;;;;;;5.12;100.00;102319.89;1841084;78;21183;-61
2020/12/18 07:08:50;;;;;;;8.03;4.03;;;;;;;5.19;99.93;102326.61;1841111;78;20926;-64
2020/12/18 07:11:21;;;;;;;9.75;4.00;;;;;;;5.23;99.75;102326.68;1841090;77;21111;-62
2020/12/18 07:13:58;;;;;;;9.35;3.83;;;;;;;5.27;99.54;102320.97;1840529;78;20954;-62
2020/12/18 07:16:26;;;;;;;9.88;3.90;;;;;;;5.30;99.41;102325.00;1810312;78;20942;-63
2020/12/18 07:18:59;;;;;;;8.30;3.87;;;;;;;5.35;99.12;102331.26;1841108;77;21356;-63
2020/12/18 07:21:26;;;;;;;7.45;3.90;;;;;;;5.37;98.83;102332.17;1840533;78;21028;-63
2020/12/18 07:23:54;;;;;;;7.40;3.27;;;;;;;5.40;98.65;102325.55;1841095;78;20910;-62
2020/12/18 07:26:22;;;;;;;7.60;3.35;;;;;;;5.42;98.46;102330.91;1841095;77;21044;-63
2020/12/18 07:28:49;;;;;;;9.00;3.08;;;;;;;5.43;98.17;102328.27;1841061;78;21080;-62
2020/12/18 07:31:24;;;;;;;9.03;3.02;;;;;;;5.45;97.90;102325.19;1841061;78;21309;-62
2020/12/18 07:33:56;;;;;;;6.30;3.05;;;;;;;5.49;97.56;102334.53;1841005;78;20994;-62
2020/12/18 07:36:26;;;;;;;7.42;3.10;;;;;;;5.52;97.22;102329.25;1838551;78;20940;-62
2020/12/18 07:39:00;;;;;;;6.95;3.08;;;;;;;5.52;96.89;102325.25;1827692;78;21082;-62
2020/12/18 07:41:31;;;;;;;8.23;3.12;;;;;;;5.54;96.68;102331.48;1827500;78;21102;-63
2020/12/18 07:44:09;;;;;;;5.72;3.30;;;;;;;5.57;96.69;102336.83;1828210;78;21346;-62
2020/12/18 07:46:38;;;;;;;6.40;2.90;;;;;;;5.59;96.35;102332.00;1828111;78;21007;-62
2020/12/18 07:49:12;;;;;;;8.40;3.22;;;;;;;5.62;95.99;102326.25;1828118;78;20936;-63
2020/12/18 07:51:42;;;;;;;7.28;3.20;;;;;;;5.64;95.91;102332.05;1828110;78;21027;-62
2020/12/18 07:54:10;;;;;;;6.83;2.98;;;;;;;5.65;95.56;102334.27;1828206;78;20991;-63
2020/12/18 07:56:38;;;;;;;5.08;2.87;;;;;;;5.65;95.28;102332.52;1758324;78;21537;-62
2020/12/18 07:59:08;;;;;;;5.67;3.33;;;;;;;5.66;95.07;102338.28;1828022;78;21059;-63
2020/12/18 08:01:37;;;;;;;12.25;3.02;;;;;;;5.70;94.63;102345.42;1828039;78;21173;-62
2020/12/18 08:04:12;;;;;;;6.37;3.42;;;;;;;5.71;94.43;102339.22;1828122;78;21063;-63
2020/12/18 08:06:42;;;;;;;6.47;3.08;;;;;;;5.74;94.23;102343.24;1828132;78;21083;-62
2020/12/18 08:09:11;;;;;;;8.00;3.25;;;;;;;5.78;94.09;102339.27;1828235;78;21526;-63
2020/12/18 08:11:44;;;;;;;6.00;2.90;;;;;;;5.78;93.94;102340.61;1827634;77;21003;-61
2020/12/18 08:14:13;;;;;;;7.90;3.05;;;;;;;5.81;93.84;102335.31;1827540;78;21515;-62
2020/12/18 08:16:40;;;;;;;9.28;2.80;;;;;;;5.84;93.67;102332.67;1827515;78;20995;-62
2020/12/18 08:19:10;;;;;;;6.25;3.05;;;;;;;5.86;93.55;102338.48;1827458;78;21106;-63
2020/12/18 08:21:47;;;;;;;5.22;2.95;;;;;;;5.88;93.32;102331.86;1827529;78;21190;-64
2020/12/18 08:24:32;;;;;;;9.25;2.60;;;;;;;5.86;92.97;102333.61;1827460;78;21209;-62
2020/12/18 08:27:04;;;;;;;;;;;;;;;5.86;92.83;102329.16;1830319;78;21110;-63
2020/12/18 08:29:31;;;;;;;4.55;2.90;;;;;;;5.87;92.81;102332.73;1827446;77;20209;-62
2020/12/18 08:32:02;;;;;;;8.25;3.40;;;;;;;5.88;92.60;102334.52;1827532;77;21084;-62
2020/12/18 08:34:31;;;;;;;6.80;3.60;;;;;;;5.90;92.42;102328.77;1827453;78;21363;-63
2020/12/18 08:36:59;;;;;;;7.25;2.70;;;;;;;5.91;92.30;102331.88;1825990;78;20980;-62
2020/12/18 08:39:32;;;;;;;6.33;3.22;;;;;;;5.94;92.29;102331.91;1824280;78;21047;-64
2020/12/18 08:42:00;;;;;;;9.28;3.52;;;;;;;5.95;92.03;102327.45;1823948;78;21122;-62
2020/12/18 08:44:37;;;;;;;7.72;2.45;;;;;;;5.95;91.87;102331.03;1824287;78;21122;-62
2020/12/18 08:47:23;;;;;;;8.43;4.12;;;;;;;5.98;91.89;102332.39;1824256;78;21253;-62
2020/12/18 08:49:52;;;;;;;9.38;3.62;;;;;;;6.00;91.59;102329.30;1824333;78;21003;-62
2020/12/18 08:52:29;;;;;;;5.30;2.52;;;;;;;5.99;91.63;102323.52;1824338;78;21118;-63
2020/12/18 08:55:06;;;;;;;6.28;3.10;;;;;;;6.02;91.62;102328.03;1824230;78;21125;-62
2020/12/18 08:57:36;;;;;;;7.00;3.25;;;;;;;6.05;91.40;102319.16;1824325;78;20975;-63
2020/12/18 09:00:19;;;;;;;7.83;3.60;;;;;;;6.05;91.31;102320.48;1826060;78;21190;-63
2020/12/18 09:02:56;;;;;;;6.62;3.27;;;;;;;6.08;91.20;102324.50;1830358;77;21170;-63
2020/12/18 09:05:26;;;;;;;6.33;3.08;;;;;;;6.06;91.23;102314.28;1830352;78;21086;-63
2020/12/18 09:08:06;;;;;;;7.97;3.00;;;;;;;6.07;91.36;102319.63;1830321;78;21050;-62
2020/12/18 09:10:45;;;;;;;9.23;3.35;;;;;;;6.10;91.50;102314.78;1830364;78;21058;-63
2020/12/18 09:13:23;;;;;;;9.50;3.37;;;;;;;6.14;91.55;102316.13;1830345;78;22316;-63
2020/12/18 09:16:03;;;;;;;5.65;3.35;;;;;;;6.18;91.46;102318.82;1830381;77;20976;-63
2020/12/18 09:18:41;;;;;;;6.15;3.40;;;;;;;6.19;91.40;102318.84;1830377;78;21169;-63
2020/12/18 09:21:14;;;;;;;8.55;3.30;;;;;;;6.18;90.98;102318.39;1830333;77;21122;-62
2020/12/18 09:23:43;;;;;;;6.28;2.90;;;;;;;6.16;91.02;102308.17;1830346;78;21109;-63
2020/12/18 09:26:28;;;;;;;8.80;4.15;;;;;;;6.16;90.94;102311.70;1829232;77;22866;-63
2020/12/18 09:28:58;;;;;;;8.35;3.52;;;;;;;6.19;91.03;102317.52;1830341;77;21066;-63
2020/12/18 09:31:27;;;;;;;7.08;3.33;;;;;;;6.18;91.14;102309.50;1830490;78;21703;-63
2020/12/18 09:33:56;;;;;;;6.62;3.52;;;;;;;6.17;91.16;102309.95;1830358;77;21550;-63
2020/12/18 09:36:24;;;;;;;5.90;3.10;;;;;;;6.15;91.24;102303.73;1830673;78;21112;-64
2020/12/18 09:38:52;;;;;;;7.40;3.10;;;;;;;6.15;91.10;102303.73;1789942;78;21133;-63
2020/12/18 09:41:21;;;;;;;9.03;3.55;;;;;;;6.14;90.99;102299.28;1831906;78;21142;-64
2020/12/18 09:43:49;;;;;;;6.22;3.58;;;;;;;6.14;90.90;102299.28;1832078;78;21008;-63
2020/12/18 09:46:18;;;;;;;14.03;5.42;;;;;;;6.14;91.01;102303.27;1801496;78;21147;-64
2020/12/18 09:48:47;;;;;;;13.30;6.65;;;;;;;6.14;91.06;102295.28;1799414;79;21484;-63
2020/12/18 09:51:16;;;;;;;7.80;4.22;;;;;;;6.18;91.04;102298.42;1799381;79;21417;-63
2020/12/18 09:53:47;;;;;;;8.15;3.50;;;;;;;6.20;90.98;102299.32;1799334;79;21495;-63
2020/12/18 09:56:15;;;;;;;7.35;3.60;;;;;;;6.21;90.65;102294.91;1799431;79;21071;-63
2020/12/18 09:58:43;;;;;;;5.97;3.40;;;;;;;6.21;90.65;102294.91;1799326;79;21476;-63
2020/12/18 10:01:16;;;;;;;12.35;3.90;;;;;;;6.23;90.54;102294.47;1803439;79;21717;-62
2020/12/18 10:03:46;;;;;;;;;;;;;;;6.22;90.37;102295.35;1809651;79;22856;-62
2020/12/18 10:06:13;;;;;;;6.00;3.42;;;;;;;6.21;90.24;102295.78;1807255;79;20109;-62
2020/12/18 10:08:41;;;;;;;10.00;4.20;;;;;;;6.21;90.30;102291.78;1807320;79;21112;-63
2020/12/18 10:11:09;;;;;;;10.38;3.60;;;;;;;6.19;90.28;102284.22;1758258;81;21001;-62
2020/12/18 10:13:36;;;;;;;9.88;3.90;;;;;;;6.20;90.28;102294.00;1750165;82;21105;-62
2020/12/18 10:16:07;;;;;;;8.58;3.52;;;;;;;6.20;90.34;102287.80;1758344;81;21489;-62
2020/12/18 10:18:36;;;;;;;16.37;4.62;;;;;;;6.20;90.36;102283.34;1758311;81;20969;-62
2020/12/18 10:21:03;;;;;;;12.58;6.53;;;;;;;6.24;90.55;102281.14;1750102;82;21089;-62
2020/12/18 10:23:31;;;;;;;9.90;4.78;;;;;;;6.28;90.58;102280.28;1758234;81;20985;-62
2020/12/18 10:25:58;;;;;;;10.68;5.12;;;;;;;6.33;90.50;102277.66;1758372;81;21124;-63
2020/12/18 10:28:26;;;;;;;12.45;5.58;;;;;;;6.38;90.24;102281.70;1750084;82;21506;-62
2020/12/18 10:30:54;;;;;;;6.20;3.80;;;;;;;6.43;90.07;102277.29;1758291;81;20942;-63
2020/12/18 10:33:22;;;;;;;5.67;3.45;;;;;;;6.48;89.82;102278.20;1758346;81;20914;-62
2020/12/18 10:35:50;;;;;;;9.53;4.62;;;;;;;6.50;89.64;102277.77;1750008;82;21394;-62
2020/12/18 10:38:17;;;;;;;11.68;3.95;;;;;;;6.50;89.46;102273.77;1756875;81;21228;-62
2020/12/18 10:43:26;;;;;;;6.07;3.57;;;;;;;6.59;89.17;102272.52;1889612;76;21982;-62
2020/12/18 10:45:54;;;;;;;6.60;3.45;;;;;;;6.56;88.91;102264.94;1860435;77;20894;-62
2020/12/18 10:48:21;;;;;;;5.53;3.33;;;;;;;6.56;89.09;102265.84;1849286;76;21358;-63
2020/12/18 10:50:49;;;;;;;9.73;3.98;;;;;;;6.56;88.82;102265.84;1845356;77;21051;-62
2020/12/18 10:53:16;;;;;;;9.63;5.70;;;;;;;6.56;88.86;102255.61;1860392;77;20929;-63
2020/12/18 10:55:44;;;;;;;6.80;3.72;;;;;;;6.55;88.70;102261.82;1860453;77;20922;-62
2020/12/18 10:58:11;;;;;;;7.92;4.05;;;;;;;6.51;88.38;102256.03;1860468;77;20980;-63
2020/12/18 11:00:40;;;;;;;8.13;4.17;;;;;;;6.44;88.26;102257.75;1860577;77;22314;-62
2020/12/18 11:03:07;;;;;;;7.05;3.75;;;;;;;6.39;88.14;102254.17;1860333;77;21039;-62
2020/12/18 11:05:35;;;;;;;8.20;4.40;;;;;;;6.34;88.28;102255.47;1860482;77;22277;-63
2020/12/18 11:08:02;;;;;;;10.78;4.60;;;;;;;6.33;88.47;102251.48;1860421;77;21221;-62
2020/12/18 11:10:30;;;;;;;8.93;4.20;;;;;;;6.30;88.54;102251.91;1860461;77;21126;-63
2020/12/18 11:12:57;;;;;;;8.75;4.37;;;;;;;6.27;88.53;102247.87;1860362;77;21421;-62
2020/12/18 11:15:25;;;;;;;11.22;4.65;;;;;;;6.25;88.68;102243.43;1860260;77;20997;-62
2020/12/18 11:17:52;;;;;;;9.88;4.85;;;;;;;6.22;88.68;102246.95;1860353;77;21147;-63
2020/12/18 11:20:20;;;;;;;10.00;4.87;;;;;;;6.21;88.86;102241.63;1860358;77;21004;-63
2020/12/18 11:22:48;;;;;;;11.33;5.00;;;;;;;6.20;88.97;102242.05;1860397;77;21124;-62
2020/12/18 11:25:16;;;;;;;11.22;5.20;;;;;;;6.20;89.08;102239.39;1860354;77;21649;-62
2020/12/18 11:27:43;;;;;;;12.82;5.10;;;;;;;6.19;89.07;102232.28;1860344;77;21083;-63
2020/12/18 11:30:11;;;;;;;14.18;6.45;;;;;;;6.18;89.02;102238.49;1860263;77;21099;-62
2020/12/18 11:32:43;;;;;;;13.38;6.00;;;;;;;6.18;89.15;102241.16;1860379;77;21019;-63
2020/12/18 11:35:11;;;;;;;17.42;5.05;;;;;;;6.18;89.15;102241.16;1860320;77;20960;-63
2020/12/18 11:37:39;;;;;;;7.92;4.03;;;;;;;6.20;89.41;102240.72;1836171;77;21570;-63
2020/12/18 11:40:07;;;;;;;9.00;3.70;;;;;;;6.18;89.49;102241.58;1826541;78;20944;-63
2020/12/18 11:42:35;;;;;;;15.68;8.25;;;;;;;6.14;89.78;102244.22;1826509;78;21071;-63
2020/12/18 11:45:04;;;;;;;8.85;4.55;;;;;;;6.12;90.03;102238.00;1826603;78;21064;-63
2020/12/18 11:47:32;;;;;;;13.05;5.00;;;;;;;6.13;90.37;102241.57;1826626;78;21111;-63
2020/12/18 11:50:00;;;;;;;14.90;7.53;;;;;;;6.13;90.59;102243.78;1826649;78;21364;-63
2020/12/18 11:52:27;;;;;;;11.50;5.47;;;;;;;6.13;90.74;102237.58;1826485;78;21146;-63